createdAt,value
2018-08-30T00:00:49.245Z,20.00
2018-08-30T00:03:18.632Z,20.00
2018-08-30T00:05:47.998Z,20.00
2018-08-30T00:08:17.413Z,19.80
2018-08-30T00:10:47.860Z,19.80
2018-08-30T00:13:17.253Z,19.90
2018-08-30T00:15:46.715Z,19.90
2018-08-30T00:18:16.177Z,19.80
2018-08-30T00:20:53.217Z,19.90
2018-08-30T00:23:22.585Z,20.00
2018-08-30T00:25:52.021Z,20.10
2018-08-30T00:28:21.384Z,20.10
2018-08-30T00:30:50.520Z,20.00
2018-08-30T00:33:19.633Z,19.90
2018-08-30T00:35:48.708Z,20.00
2018-08-30T00:38:17.852Z,20.00
2018-08-30T00:40:48.113Z,20.00
2018-08-30T00:43:17.277Z,19.90
2018-08-30T00:45:46.445Z,19.90
2018-08-30T00:48:15.821Z,20.00
2018-08-30T00:50:47.209Z,20.00
2018-08-30T00:53:16.622Z,20.00
2018-08-30T00:55:46.081Z,20.00
2018-08-30T00:58:15.482Z,20.00
2018-08-30T01:00:44.893Z,20.00
2018-08-30T01:03:14.361Z,19.90
2018-08-30T01:05:43.830Z,19.90
2018-08-30T01:08:13.209Z,19.90
2018-08-30T01:10:59.857Z,19.90
2018-08-30T01:13:29.291Z,19.90
2018-08-30T01:15:58.711Z,19.80
2018-08-30T01:18:28.111Z,19.70
2018-08-30T01:20:57.590Z,19.60
2018-08-30T01:23:26.989Z,19.60
2018-08-30T01:25:56.365Z,19.50
2018-08-30T01:28:25.777Z,19.50
2018-08-30T01:30:55.187Z,19.50
2018-08-30T01:33:24.591Z,19.30
2018-08-30T01:35:53.994Z,19.20
2018-08-30T01:38:23.418Z,19.10
2018-08-30T01:40:54.892Z,19.00
2018-08-30T01:43:24.227Z,19.10
2018-08-30T01:45:53.695Z,18.90
2018-08-30T01:48:23.023Z,18.90
2018-08-30T01:51:18.637Z,18.90
2018-08-30T01:53:47.949Z,18.90
2018-08-30T01:56:17.397Z,18.80
2018-08-30T01:58:46.805Z,18.80
2018-08-30T02:01:16.256Z,18.90
2018-08-30T02:03:45.654Z,18.90
2018-08-30T02:06:15.053Z,18.90
2018-08-30T02:08:44.445Z,18.80
2018-08-30T02:11:25.708Z,18.90
2018-08-30T02:13:55.129Z,18.90
2018-08-30T02:16:24.536Z,18.90
2018-08-30T02:18:53.917Z,18.70
2018-08-30T02:21:55.231Z,18.80
2018-08-30T02:24:24.550Z,18.80
2018-08-30T02:26:53.677Z,18.90
2018-08-30T02:29:22.796Z,18.80
2018-08-30T02:31:59.499Z,18.80
2018-08-30T02:34:28.645Z,18.90
2018-08-30T02:36:57.781Z,18.80
2018-08-30T02:39:27.057Z,18.70
2018-08-30T02:42:03.760Z,18.60
2018-08-30T02:44:33.130Z,18.30
2018-08-30T02:47:02.501Z,18.10
2018-08-30T02:52:02.610Z,18.00
2018-08-30T02:54:32.413Z,17.90
2018-08-30T02:57:02.706Z,17.80
2018-08-30T02:59:32.157Z,17.70
2018-08-30T03:02:09.046Z,17.70
2018-08-30T03:04:38.525Z,17.70
2018-08-30T03:07:08.596Z,17.70
2018-08-30T03:09:38.123Z,17.70
2018-08-30T03:12:21.079Z,17.70
2018-08-30T03:15:07.677Z,17.70
2018-08-30T03:17:37.521Z,17.70
2018-08-30T03:20:08.857Z,17.70
2018-08-30T03:22:39.483Z,17.70
2018-08-30T03:25:08.756Z,17.60
2018-08-30T03:27:37.881Z,17.60
2018-08-30T03:30:08.490Z,17.60
2018-08-30T03:32:37.733Z,17.60
2018-08-30T03:35:07.270Z,17.50
2018-08-30T03:37:36.765Z,17.50
2018-08-30T03:40:06.345Z,17.50
2018-08-30T03:42:35.770Z,17.40
2018-08-30T03:45:05.379Z,17.40
2018-08-30T03:47:34.787Z,17.40
2018-08-30T03:50:05.406Z,17.40
2018-08-30T03:52:34.565Z,17.30
2018-08-30T03:55:05.144Z,17.20
2018-08-30T03:57:34.216Z,17.20
2018-08-30T04:00:03.333Z,17.20
2018-08-30T04:02:32.485Z,17.20
2018-08-30T04:05:01.912Z,17.20
2018-08-30T04:07:31.305Z,17.20
2018-08-30T04:10:03.436Z,17.10
2018-08-30T04:12:32.768Z,17.10
2018-08-30T04:15:01.896Z,17.20
2018-08-30T04:17:31.080Z,17.20
2018-08-30T04:20:00.164Z,17.10
2018-08-30T04:22:29.281Z,17.10
2018-08-30T04:24:58.372Z,17.10
2018-08-30T04:27:27.473Z,17.00
2018-08-30T04:32:25.534Z,16.90
2018-08-30T04:34:54.656Z,16.80
2018-08-30T04:37:23.792Z,16.80
2018-08-30T04:39:52.892Z,16.80
2018-08-30T04:42:30.167Z,16.80
2018-08-30T04:44:59.336Z,16.80
2018-08-30T04:47:28.700Z,16.80
2018-08-30T04:49:58.114Z,16.90
2018-08-30T04:52:27.713Z,16.80
2018-08-30T04:54:57.137Z,16.90
2018-08-30T04:57:26.522Z,16.80
2018-08-30T04:59:55.937Z,16.80
2018-08-30T05:02:25.325Z,16.90
2018-08-30T05:04:54.798Z,16.90
2018-08-30T05:07:24.658Z,16.80
2018-08-30T05:09:54.235Z,16.90
2018-08-30T05:12:24.701Z,16.70
2018-08-30T05:14:54.077Z,16.70
2018-08-30T05:17:23.473Z,16.60
2018-08-30T05:19:52.805Z,16.60
2018-08-30T05:22:22.278Z,16.60
2018-08-30T05:24:51.688Z,16.60
2018-08-30T05:27:21.261Z,16.50
2018-08-30T05:29:50.681Z,16.50
2018-08-30T05:32:24.481Z,16.40
2018-08-30T05:34:53.901Z,16.40
2018-08-30T05:37:23.296Z,16.30
2018-08-30T05:39:52.421Z,16.40
2018-08-30T05:42:23.605Z,16.60
2018-08-30T05:44:52.827Z,16.60
2018-08-30T05:47:21.997Z,16.50
2018-08-30T05:49:51.426Z,16.50
2018-08-30T05:52:22.906Z,16.40
2018-08-30T05:54:52.316Z,16.30
2018-08-30T05:57:21.694Z,16.20
2018-08-30T05:59:51.133Z,16.30
2018-08-30T06:02:21.613Z,16.20
2018-08-30T06:04:51.089Z,16.20
2018-08-30T06:07:20.575Z,16.30
2018-08-30T06:09:49.993Z,16.20
2018-08-30T06:12:22.469Z,16.20
2018-08-30T06:14:51.825Z,16.10
2018-08-30T06:17:21.263Z,16.20
2018-08-30T06:19:50.669Z,16.10
2018-08-30T06:22:35.022Z,16.20
2018-08-30T06:25:04.529Z,16.10
2018-08-30T06:27:33.897Z,16.20
2018-08-30T06:30:03.385Z,16.20
2018-08-30T06:32:32.732Z,16.10
2018-08-30T06:35:02.177Z,16.20
2018-08-30T06:37:31.601Z,16.10
2018-08-30T06:40:00.986Z,16.00
2018-08-30T06:42:30.445Z,16.10
2018-08-30T06:44:59.877Z,16.10
2018-08-30T06:47:29.281Z,16.10
2018-08-30T06:49:58.842Z,16.20
2018-08-30T06:52:29.457Z,16.10
2018-08-30T06:54:58.893Z,16.10
2018-08-30T06:57:28.253Z,16.10
2018-08-30T06:59:57.673Z,16.20
2018-08-30T07:02:28.233Z,16.10
2018-08-30T07:04:57.757Z,16.10
2018-08-30T07:07:27.107Z,16.10
2018-08-30T07:09:56.470Z,16.20
2018-08-30T07:12:25.789Z,16.20
2018-08-30T07:14:55.180Z,16.20
2018-08-30T07:17:24.502Z,16.30
2018-08-30T07:19:53.829Z,16.20
2018-08-30T07:22:28.270Z,16.30
2018-08-30T07:24:57.680Z,16.30
2018-08-30T07:27:27.420Z,16.40
2018-08-30T07:29:56.722Z,16.40
2018-08-30T07:32:29.978Z,16.40
2018-08-30T07:34:59.595Z,16.50
2018-08-30T07:37:28.764Z,16.60
2018-08-30T07:39:58.114Z,16.50
2018-08-30T07:42:27.739Z,16.60
2018-08-30T07:44:57.149Z,16.40
2018-08-30T07:47:26.609Z,16.50
2018-08-30T07:49:56.558Z,16.50
2018-08-30T07:52:33.385Z,16.50
2018-08-30T07:55:02.855Z,16.50
2018-08-30T07:57:32.368Z,16.50
2018-08-30T08:00:01.813Z,16.50
2018-08-30T08:02:31.245Z,16.50
2018-08-30T08:05:01.534Z,16.50
2018-08-30T08:10:00.193Z,16.40
2018-08-30T08:12:29.408Z,16.50
2018-08-30T08:14:58.691Z,16.50
2018-08-30T08:17:27.801Z,16.40
2018-08-30T08:19:56.941Z,16.50
2018-08-30T08:22:26.138Z,16.50
2018-08-30T08:24:55.265Z,16.50
2018-08-30T08:27:24.359Z,16.50
2018-08-30T08:29:53.469Z,16.40
2018-08-30T08:32:24.892Z,16.50
2018-08-30T08:34:53.992Z,16.60
2018-08-30T08:37:23.903Z,16.60
2018-08-30T08:39:53.045Z,16.60
2018-08-30T08:42:23.362Z,16.50
2018-08-30T08:44:52.773Z,16.60
2018-08-30T08:47:22.169Z,16.70
2018-08-30T08:49:52.146Z,16.80
2018-08-30T08:52:22.581Z,17.10
2018-08-30T08:54:52.046Z,17.50
2018-08-30T08:57:21.491Z,17.50
2018-08-30T08:59:51.154Z,17.60
2018-08-30T09:02:21.600Z,17.60
2018-08-30T09:04:51.009Z,17.70
2018-08-30T09:07:20.409Z,17.70
2018-08-30T09:09:49.770Z,17.70
2018-08-30T09:12:23.533Z,17.60
2018-08-30T09:14:53.299Z,17.50
2018-08-30T09:17:33.477Z,17.50
2018-08-30T09:20:03.837Z,17.30
2018-08-30T09:22:46.557Z,17.20
2018-08-30T09:25:15.694Z,17.30
2018-08-30T09:27:47.244Z,17.30
2018-08-30T09:30:19.883Z,17.40
2018-08-30T09:35:19.541Z,17.30
2018-08-30T09:37:48.811Z,17.40
2018-08-30T09:40:25.245Z,17.00
2018-08-30T09:42:54.408Z,17.20
2018-08-30T09:45:23.718Z,17.00
2018-08-30T09:47:53.253Z,17.10
2018-08-30T09:50:23.809Z,17.10
2018-08-30T09:52:53.257Z,17.00
2018-08-30T09:55:22.701Z,17.20
2018-08-30T09:57:52.086Z,17.40
2018-08-30T10:00:27.564Z,17.50
2018-08-30T10:02:57.335Z,17.50
2018-08-30T10:05:26.870Z,17.50
2018-08-30T10:07:57.050Z,17.40
2018-08-30T10:10:32.246Z,17.30
2018-08-30T10:13:01.610Z,17.20
2018-08-30T10:15:31.028Z,17.20
2018-08-30T10:18:00.344Z,17.30
2018-08-30T10:20:30.858Z,17.30
2018-08-30T10:23:00.664Z,17.30
2018-08-30T10:25:30.100Z,17.20
2018-08-30T10:27:59.473Z,17.20
2018-08-30T10:30:34.164Z,17.00
2018-08-30T10:33:03.509Z,17.10
2018-08-30T10:35:33.117Z,17.30
2018-08-30T10:38:02.542Z,17.50
2018-08-30T10:40:32.548Z,17.60
2018-08-30T10:43:01.973Z,17.70
2018-08-30T10:45:31.301Z,17.80
2018-08-30T10:48:00.682Z,17.90
2018-08-30T10:50:45.071Z,18.00
2018-08-30T10:53:14.433Z,18.30
2018-08-30T10:55:43.847Z,18.50
2018-08-30T10:58:13.314Z,18.70
2018-08-30T11:00:56.533Z,18.40
2018-08-30T11:03:26.238Z,18.50
2018-08-30T11:05:55.458Z,18.30
2018-08-30T11:08:24.601Z,18.30
2018-08-30T11:10:54.749Z,18.20
2018-08-30T11:13:23.896Z,18.20
2018-08-30T11:15:53.008Z,18.10
2018-08-30T11:18:22.125Z,18.30
2018-08-30T11:21:00.785Z,18.30
2018-08-30T11:23:29.860Z,18.40
2018-08-30T11:25:59.053Z,18.60
2018-08-30T11:28:28.185Z,18.90
2018-08-30T11:31:05.076Z,19.00
2018-08-30T11:33:34.200Z,19.00
2018-08-30T11:36:03.369Z,19.40
2018-08-30T11:38:32.737Z,19.80
2018-08-30T11:41:04.258Z,20.30
2018-08-30T11:43:33.630Z,20.40
2018-08-30T11:46:02.809Z,20.80
2018-08-30T11:48:31.913Z,21.80
2018-08-30T11:51:09.426Z,21.80
2018-08-30T11:53:38.453Z,21.60
2018-08-30T11:56:07.565Z,21.40
2018-08-30T11:58:36.698Z,20.90
2018-08-30T12:01:06.066Z,21.00
2018-08-30T12:03:35.261Z,21.00
2018-08-30T12:06:04.424Z,20.70
2018-08-30T12:08:33.580Z,20.40
2018-08-30T12:11:10.283Z,20.30
2018-08-30T12:13:39.326Z,20.30
2018-08-30T12:16:08.478Z,20.30
2018-08-30T12:18:37.657Z,20.60
2018-08-30T12:21:08.851Z,20.80
2018-08-30T12:23:37.911Z,21.00
2018-08-30T12:26:07.049Z,20.90
2018-08-30T12:28:37.289Z,20.80
2018-08-30T12:31:09.547Z,21.50
2018-08-30T12:33:38.618Z,21.70
2018-08-30T12:36:07.979Z,22.10
2018-08-30T12:38:37.242Z,22.10
2018-08-30T12:41:19.357Z,22.80
2018-08-30T12:43:48.820Z,22.30
2018-08-30T12:46:18.186Z,21.90
2018-08-30T12:48:47.469Z,22.20
2018-08-30T12:51:26.639Z,22.20
2018-08-30T12:53:55.793Z,22.70
2018-08-30T12:56:25.749Z,23.00
2018-08-30T12:59:00.689Z,22.50
2018-08-30T13:04:00.505Z,21.90
2018-08-30T13:06:30.029Z,22.00
2018-08-30T13:09:00.218Z,21.80
2018-08-30T13:11:30.685Z,21.60
2018-08-30T13:14:00.118Z,21.50
2018-08-30T13:16:29.507Z,21.30
2018-08-30T13:18:58.974Z,21.40
2018-08-30T13:21:28.607Z,21.50
2018-08-30T13:23:58.132Z,21.50
2018-08-30T13:26:27.382Z,22.50
2018-08-30T13:28:57.032Z,22.50
2018-08-30T13:31:27.796Z,22.20
2018-08-30T13:33:57.453Z,22.30
2018-08-30T13:36:26.714Z,21.90
2018-08-30T13:38:56.321Z,21.40
2018-08-30T13:41:28.537Z,21.40
2018-08-30T13:43:58.100Z,21.40
2018-08-30T13:46:27.203Z,21.10
2018-08-30T13:48:56.386Z,20.80
2018-08-30T13:51:28.474Z,20.70
2018-08-30T13:53:57.809Z,20.30
2018-08-30T13:56:27.463Z,20.30
2018-08-30T13:58:57.021Z,20.20
2018-08-30T14:01:28.835Z,20.30
2018-08-30T14:03:57.614Z,20.10
2018-08-30T14:06:26.897Z,19.90
2018-08-30T14:08:56.533Z,20.10
2018-08-30T14:11:26.807Z,20.10
2018-08-30T14:13:57.920Z,20.10
2018-08-30T14:16:27.080Z,20.10
2018-08-30T14:18:56.581Z,20.50
2018-08-30T14:21:25.886Z,21.00
2018-08-30T14:23:55.273Z,21.00
2018-08-30T14:26:24.600Z,20.90
2018-08-30T14:28:53.997Z,20.90
2018-08-30T14:31:40.118Z,21.10
2018-08-30T14:34:09.686Z,21.10
2018-08-30T14:36:39.058Z,21.40
2018-08-30T14:39:10.379Z,21.40
2018-08-30T14:41:40.194Z,21.00
2018-08-30T14:44:09.421Z,21.20
2018-08-30T14:46:38.853Z,21.50
2018-08-30T14:49:08.357Z,22.30
2018-08-30T14:51:45.027Z,23.30
2018-08-30T14:54:14.559Z,23.40
2018-08-30T14:56:44.001Z,24.00
2018-08-30T14:59:13.622Z,24.90
2018-08-30T15:01:58.177Z,24.90
2018-08-30T15:04:27.596Z,23.40
2018-08-30T15:06:57.037Z,22.50
2018-08-30T15:09:26.455Z,21.80
2018-08-30T15:12:10.698Z,21.60
2018-08-30T15:17:09.237Z,22.20
2018-08-30T15:19:38.594Z,22.50
2018-08-30T15:22:21.708Z,23.60
2018-08-30T15:24:51.093Z,23.80
2018-08-30T15:27:20.495Z,23.20
2018-08-30T15:29:50.136Z,22.80
2018-08-30T15:32:19.449Z,22.80
2018-08-30T15:34:48.870Z,22.40
2018-08-30T15:37:18.234Z,22.30
2018-08-30T15:39:47.697Z,22.50
2018-08-30T15:42:21.892Z,22.60
2018-08-30T15:44:51.009Z,22.90
2018-08-30T15:47:20.267Z,23.50
2018-08-30T15:49:49.291Z,23.40
2018-08-30T15:52:20.482Z,23.50
2018-08-30T15:54:49.833Z,23.40
2018-08-30T15:57:19.372Z,23.00
2018-08-30T15:59:50.302Z,23.90
2018-08-30T16:02:22.819Z,24.00
2018-08-30T16:04:52.101Z,23.70
2018-08-30T16:07:21.538Z,24.40
2018-08-30T16:09:50.942Z,24.00
2018-08-30T16:12:23.669Z,23.50
2018-08-30T16:14:59.855Z,23.20
2018-08-30T16:17:29.206Z,23.00
2018-08-30T16:19:58.220Z,22.90
2018-08-30T16:22:45.802Z,23.20
2018-08-30T16:25:14.921Z,23.00
2018-08-30T16:27:44.061Z,23.30
2018-08-30T16:30:13.227Z,23.50
2018-08-30T16:32:42.374Z,22.90
2018-08-30T16:35:11.611Z,22.80
2018-08-30T16:37:40.684Z,22.50
2018-08-30T16:40:10.854Z,21.90
2018-08-30T16:42:39.984Z,21.70
2018-08-30T16:45:09.169Z,21.60
2018-08-30T16:47:38.314Z,21.70
2018-08-30T16:50:07.519Z,21.70
2018-08-30T16:52:36.654Z,21.50
2018-08-30T16:55:06.266Z,21.00
2018-08-30T16:57:35.895Z,21.00
2018-08-30T17:00:05.466Z,20.80
2018-08-30T17:02:35.107Z,20.60
2018-08-30T17:05:04.517Z,20.40
2018-08-30T17:07:34.777Z,20.50
2018-08-30T17:10:04.575Z,20.30
2018-08-30T17:12:34.105Z,20.20
2018-08-30T17:15:03.702Z,20.30
2018-08-30T17:17:33.156Z,20.20
2018-08-30T17:20:02.583Z,20.10
2018-08-30T17:22:32.292Z,19.90
2018-08-30T17:25:01.621Z,19.80
2018-08-30T17:27:30.929Z,19.70
2018-08-30T17:30:00.324Z,19.60
2018-08-30T17:32:29.701Z,19.50
2018-08-30T17:34:59.053Z,19.40
2018-08-30T17:37:28.552Z,19.20
2018-08-30T17:39:57.736Z,19.30
2018-08-30T17:42:32.669Z,19.30
2018-08-30T17:45:01.782Z,19.20
2018-08-30T17:47:30.939Z,19.20
2018-08-30T17:50:00.025Z,19.00
2018-08-30T17:52:29.236Z,18.90
2018-08-30T17:54:58.548Z,18.90
2018-08-30T17:57:28.004Z,18.70
2018-08-30T18:02:28.597Z,18.50
2018-08-30T18:04:58.006Z,18.40
2018-08-30T18:07:27.421Z,18.30
2018-08-30T18:09:56.756Z,18.10
2018-08-30T18:12:28.282Z,17.90
2018-08-30T18:14:57.733Z,17.70
2018-08-30T18:17:27.747Z,17.70
2018-08-30T18:19:57.319Z,17.70
2018-08-30T18:22:41.479Z,17.50
2018-08-30T18:25:13.233Z,17.40
2018-08-30T18:27:43.701Z,17.30
2018-08-30T18:30:13.025Z,17.10
2018-08-30T18:32:42.422Z,17.00
2018-08-30T18:35:11.846Z,17.00
2018-08-30T18:37:41.224Z,17.00
2018-08-30T18:40:10.961Z,17.00
2018-08-30T18:42:49.405Z,16.90
2018-08-30T18:45:49.658Z,16.70
2018-08-30T18:48:19.214Z,16.70
2018-08-30T18:50:48.682Z,16.60
2018-08-30T18:53:18.089Z,16.60
2018-08-30T18:55:47.446Z,16.50
2018-08-30T18:58:16.813Z,16.40
2018-08-30T19:01:09.322Z,16.30
2018-08-30T19:03:38.816Z,16.30
2018-08-30T19:06:08.127Z,16.20
2018-08-30T19:11:12.001Z,16.00
2018-08-30T19:13:41.394Z,15.90
2018-08-30T19:17:13.612Z,15.90
2018-08-30T19:19:43.020Z,15.80
2018-08-30T19:22:19.633Z,15.80
2018-08-30T19:24:54.069Z,15.70
2018-08-30T19:27:23.393Z,15.60
2018-08-30T19:29:57.862Z,15.50
2018-08-30T19:32:36.969Z,15.30
2018-08-30T19:35:11.449Z,15.30
2018-08-30T19:37:40.825Z,15.30
2018-08-30T19:40:16.357Z,15.30
2018-08-30T19:42:45.667Z,15.30
2018-08-30T19:45:15.106Z,15.30
2018-08-30T19:47:44.474Z,15.20
2018-08-30T19:50:13.910Z,15.20
2018-08-30T19:52:43.381Z,15.10
2018-08-30T19:55:12.785Z,15.00
2018-08-30T19:57:42.258Z,15.00
2018-08-30T20:00:11.794Z,15.00
2018-08-30T20:02:41.214Z,15.00
2018-08-30T20:07:39.646Z,14.80
2018-08-30T20:10:08.986Z,14.70
2018-08-30T20:12:38.489Z,14.70
2018-08-30T20:15:07.924Z,14.70
2018-08-30T20:17:37.293Z,14.70
2018-08-30T20:20:07.297Z,14.60
2018-08-30T20:25:06.334Z,14.90
2018-08-30T20:27:35.866Z,14.50
2018-08-30T20:30:05.405Z,14.50
2018-08-30T20:32:34.816Z,14.50
2018-08-30T20:35:04.017Z,14.40
2018-08-30T20:37:33.129Z,14.20
2018-08-30T20:40:02.225Z,14.40
2018-08-30T20:42:41.196Z,14.40
2018-08-30T20:45:11.472Z,14.40
2018-08-30T20:47:41.694Z,14.30
2018-08-30T20:50:11.128Z,14.40
2018-08-30T20:52:40.678Z,14.20
2018-08-30T20:55:09.994Z,14.20
2018-08-30T20:57:39.420Z,14.20
2018-08-30T21:00:08.928Z,14.10
2018-08-30T21:02:38.344Z,14.20
2018-08-30T21:05:08.139Z,14.20
2018-08-30T21:07:38.238Z,14.00
2018-08-30T21:10:08.402Z,13.90
2018-08-30T21:15:08.565Z,13.80
2018-08-30T21:17:38.087Z,13.80
2018-08-30T21:22:36.909Z,13.70
2018-08-30T21:25:06.396Z,13.70
2018-08-30T21:27:35.737Z,13.70
2018-08-30T21:30:05.542Z,13.60
2018-08-30T21:32:35.279Z,13.50
2018-08-30T21:35:04.737Z,13.60
2018-08-30T21:37:34.141Z,13.70
2018-08-30T21:42:32.527Z,13.50
2018-08-30T21:45:01.857Z,13.40
2018-08-30T21:47:31.360Z,13.40
2018-08-30T21:50:00.838Z,13.30
2018-08-30T21:52:30.275Z,13.20
2018-08-30T21:54:59.673Z,13.10
2018-08-30T21:57:29.108Z,13.20
2018-08-30T21:59:58.553Z,13.30
2018-08-30T22:02:28.043Z,13.30
2018-08-30T22:04:57.405Z,13.40
2018-08-30T22:07:26.750Z,13.30
2018-08-30T22:09:56.209Z,13.30
2018-08-30T22:12:25.654Z,13.30
2018-08-30T22:14:55.018Z,13.20
2018-08-30T22:17:24.361Z,13.20
2018-08-30T22:19:53.866Z,13.10
2018-08-30T22:22:23.302Z,13.00
2018-08-30T22:24:52.626Z,13.10
2018-08-30T22:27:21.994Z,13.10
2018-08-30T22:29:51.414Z,13.20
2018-08-30T22:32:28.507Z,13.10
2018-08-30T22:34:57.681Z,13.10
2018-08-30T22:37:26.801Z,12.90
2018-08-30T22:39:55.964Z,12.90
2018-08-30T22:42:25.101Z,12.90
2018-08-30T22:44:54.261Z,12.80
2018-08-30T22:47:23.436Z,12.80
2018-08-30T22:49:52.540Z,12.50
2018-08-30T22:54:57.984Z,12.30
2018-08-30T22:57:27.090Z,12.50
2018-08-30T22:59:56.167Z,12.40
2018-08-30T23:02:25.377Z,12.50
2018-08-30T23:04:54.488Z,12.30
2018-08-30T23:07:23.569Z,12.40
2018-08-30T23:09:52.673Z,12.40
2018-08-30T23:12:22.784Z,12.50
2018-08-30T23:14:51.971Z,12.60
2018-08-30T23:17:22.073Z,12.60
2018-08-30T23:19:51.427Z,12.50
2018-08-30T23:22:21.990Z,12.40
2018-08-30T23:25:00.209Z,12.10
2018-08-30T23:27:29.326Z,12.20
2018-08-30T23:29:58.408Z,12.30
2018-08-30T23:32:28.565Z,12.50
2018-08-30T23:34:57.656Z,12.30
2018-08-30T23:37:26.736Z,12.40
2018-08-30T23:39:55.866Z,12.40
2018-08-30T23:42:29.133Z,12.40
2018-08-30T23:44:58.237Z,12.30
2018-08-30T23:47:27.953Z,12.20
2018-08-30T23:49:57.169Z,12.30
2018-08-30T23:52:28.389Z,12.20
2018-08-30T23:54:58.101Z,12.20
2018-08-30T23:57:27.249Z,12.20
